< < Back
Terminal Aerodrome Forecast


Current Version              Previous Versions:   1  2  3  4  5  6  7  8  9  

Terminal Aerodrome Forecast

774
FTUS44 KBMX 312334
TAFTCL
TAF
KTCL 312334Z 0100/0124 01010KT P6SM SKC
     FM010300 02003KT P6SM SKC
     FM011500 04012G20KT P6SM SKC=

Latest METAR

903
SAUS70 KWBC 010800 RRR
MTRTCL
METAR KTCL 010753Z AUTO 01005KT 10SM CLR 21/16 A2995 RMK AO2 SLP139
T02110161


USA.gov is the U.S. government's official web portal to all federal, state and local government web resources and services.